Time;durP1;ratioP1;P1;durP2;ratioP2;P2;SDS_P1;SDS_P2;PMS_P1;PMS_P2;Temp;Humidity;BMP_temperature;BMP_pressure;BME280_temperature;BME280_humidity;BME280_pressure;Samples;Min_cycle;Max_cycle;Signal;HPM_P1;HPM_P2
2021/03/25 00:00:28;;;;;;;;;40.00;38.00;;;;;;;;5084332;28;11580;-78
2021/03/25 00:02:59;;;;;;;;;42.25;38.25;;;;;;;;5084813;28;11578;-77
2021/03/25 00:05:28;;;;;;;;;45.50;40.25;;;;;;;;5082885;28;11645;-77
2021/03/25 00:07:54;;;;;;;;;44.50;42.25;;;;;;;;5086708;28;11713;-78
2021/03/25 00:10:23;;;;;;;;;39.50;36.00;;;;;;;;5086862;28;11680;-78
2021/03/25 00:12:52;;;;;;;;;46.25;38.00;;;;;;;;5094912;28;11748;-76
2021/03/25 00:15:20;;;;;;;;;36.00;35.00;;;;;;;;5082632;28;11595;-76
2021/03/25 00:17:49;;;;;;;;;21.00;17.25;;;;;;;;5082933;28;12135;-76
2021/03/25 00:20:17;;;;;;;;;42.75;40.50;;;;;;;;5084247;28;11580;-76
2021/03/25 00:22:51;;;;;;;;;39.25;35.25;;;;;;;;5082083;28;11581;-79
2021/03/25 00:25:27;;;;;;;;;42.00;38.50;;;;;;;;5082616;28;12839;-78
2021/03/25 00:27:56;;;;;;;;;50.75;40.25;;;;;;;;5092466;28;11623;-76
2021/03/25 00:30:27;;;;;;;;;44.00;38.25;;;;;;;;5081586;28;11488;-79
2021/03/25 00:32:53;;;;;;;;;38.75;38.75;;;;;;;;5086040;28;11613;-76
2021/03/25 00:35:22;;;;;;;;;47.00;42.75;;;;;;;;5082318;28;11586;-78
2021/03/25 00:37:53;;;;;;;;;41.75;40.00;;;;;;;;5078436;28;11695;-77
2021/03/25 00:40:20;;;;;;;;;50.50;43.50;;;;;;;;5088500;28;11566;-76
2021/03/25 00:42:48;;;;;;;;;56.00;43.00;;;;;;;;5081424;28;11586;-77
2021/03/25 00:45:30;;;;;;;;;38.00;34.75;;;;;;;;5077836;28;11727;-75
2021/03/25 00:47:58;;;;;;;;;43.25;39.50;;;;;;;;5076505;28;11618;-76
2021/03/25 00:50:29;;;;;;;;;47.75;40.75;;;;;;;;5087074;28;11781;-75
2021/03/25 00:52:56;;;;;;;;;50.00;40.75;;;;;;;;5082938;28;11664;-74
2021/03/25 00:55:24;;;;;;;;;46.50;41.75;;;;;;;;5082662;28;11718;-77
2021/03/25 00:57:51;;;;;;;;;44.50;38.00;;;;;;;;5082670;28;11580;-78
2021/03/25 01:00:22;;;;;;;;;46.00;42.00;;;;;;;;5078960;28;12415;-76
2021/03/25 01:02:50;;;;;;;;;51.75;39.75;;;;;;;;5084276;28;11571;-76
2021/03/25 01:05:17;;;;;;;;;55.75;45.75;;;;;;;;5088773;28;11670;-76
2021/03/25 01:07:46;;;;;;;;;55.00;42.00;;;;;;;;5082287;28;13054;-78
2021/03/25 01:10:18;;;;;;;;;45.50;42.50;;;;;;;;5082510;28;11573;-77
2021/03/25 01:12:48;;;;;;;;;52.25;43.25;;;;;;;;5082545;28;11583;-78
2021/03/25 01:15:16;;;;;;;;;41.50;36.50;;;;;;;;5080798;28;11604;-78
2021/03/25 01:17:46;;;;;;;;;38.75;32.50;;;;;;;;5082460;28;11572;-77
2021/03/25 01:20:19;;;;;;;;;44.00;37.75;;;;;;;;5080460;28;11574;-78
2021/03/25 01:22:47;;;;;;;;;48.50;39.25;;;;;;;;5080056;28;11600;-78
2021/03/25 01:25:15;;;;;;;;;61.25;46.50;;;;;;;;5089940;28;11675;-78
2021/03/25 01:27:44;;;;;;;;;57.00;46.50;;;;;;;;5085118;28;11569;-79
2021/03/25 01:30:12;;;;;;;;;53.25;42.50;;;;;;;;5092502;27;11576;-77
2021/03/25 01:32:39;;;;;;;;;48.00;41.25;;;;;;;;5085013;28;11632;-79
2021/03/25 01:35:11;;;;;;;;;54.00;46.25;;;;;;;;5083023;28;11598;-78
2021/03/25 01:37:42;;;;;;;;;53.50;44.50;;;;;;;;5082415;28;11656;-75
2021/03/25 01:40:14;;;;;;;;;52.00;42.50;;;;;;;;5083554;28;11570;-76
2021/03/25 01:42:42;;;;;;;;;53.00;44.00;;;;;;;;5082785;28;11584;-76
2021/03/25 01:45:36;;;;;;;;;46.00;42.25;;;;;;;;5081335;28;11711;-76
2021/03/25 01:48:03;;;;;;;;;49.25;40.00;;;;;;;;5079633;28;12445;-77
2021/03/25 01:50:35;;;;;;;;;38.00;37.00;;;;;;;;5081547;28;11730;-76
2021/03/25 01:53:18;;;;;;;;;38.25;37.75;;;;;;;;5081715;28;11575;-77
2021/03/25 01:55:58;;;;;;;;;48.00;42.50;;;;;;;;5076018;28;11551;-78
2021/03/25 01:58:44;;;;;;;;;49.25;43.25;;;;;;;;5081720;28;11592;-76
2021/03/25 02:01:27;;;;;;;;;37.00;34.25;;;;;;;;5082064;27;11538;-77
2021/03/25 02:04:14;;;;;;;;;52.50;44.50;;;;;;;;5086570;28;11710;-77
2021/03/25 02:06:46;;;;;;;;;57.00;47.75;;;;;;;;5083446;28;12504;-78
2021/03/25 02:09:26;;;;;;;;;62.25;49.25;;;;;;;;5082155;28;11566;-79
2021/03/25 02:12:03;;;;;;;;;65.33;48.00;;;;;;;;5080336;28;11758;-76
2021/03/25 02:14:36;;;;;;;;;46.50;44.00;;;;;;;;5082751;28;11649;-77
2021/03/25 02:17:09;;;;;;;;;67.67;52.00;;;;;;;;5079188;28;11556;-78
2021/03/25 02:20:11;;;;;;;;;53.00;45.00;;;;;;;;5082474;28;11716;-77
2021/03/25 02:22:51;;;;;;;;;67.33;51.67;;;;;;;;5080856;28;11583;-78
2021/03/25 02:25:21;;;;;;;;;58.25;46.75;;;;;;;;5084512;28;11648;-77
2021/03/25 02:27:59;;;;;;;;;61.25;47.75;;;;;;;;5086653;28;11724;-79
2021/03/25 02:30:38;;;;;;;;;55.50;47.50;;;;;;;;5082663;28;11481;-78
2021/03/25 02:33:10;;;;;;;;;54.00;46.00;;;;;;;;5087965;28;11649;-78
2021/03/25 02:35:43;;;;;;;;;55.25;45.50;;;;;;;;5087115;28;11525;-79
2021/03/25 02:38:13;;;;;;;;;60.25;48.50;;;;;;;;5085203;28;11546;-79
2021/03/25 02:40:44;;;;;;;;;63.00;48.25;;;;;;;;5084796;28;11614;-80
2021/03/25 02:43:14;;;;;;;;;51.00;44.25;;;;;;;;5084764;28;11602;-76
2021/03/25 02:45:45;;;;;;;;;59.00;47.25;;;;;;;;5084597;28;11561;-80
2021/03/25 02:48:15;;;;;;;;;65.00;50.00;;;;;;;;5085379;28;11634;-78
2021/03/25 02:50:45;;;;;;;;;57.75;46.75;;;;;;;;5085456;28;11666;-79
2021/03/25 02:53:16;;;;;;;;;50.75;44.25;;;;;;;;5081190;28;11566;-78
2021/03/25 02:55:43;;;;;;;;;55.00;45.75;;;;;;;;5083736;28;11579;-78
2021/03/25 02:58:15;;;;;;;;;57.25;45.75;;;;;;;;5085856;28;11576;-78
2021/03/25 03:00:44;;;;;;;;;38.50;38.25;;;;;;;;5083228;28;11625;-78
2021/03/25 03:03:15;;;;;;;;;55.25;46.25;;;;;;;;5084888;28;12516;-79
2021/03/25 03:05:43;;;;;;;;;63.75;52.00;;;;;;;;5084128;28;11577;-78
2021/03/25 03:08:16;;;;;;;;;58.25;48.75;;;;;;;;5083897;28;11682;-78
2021/03/25 03:10:46;;;;;;;;;52.25;43.00;;;;;;;;5082861;28;11692;-78
2021/03/25 03:13:15;;;;;;;;;62.75;50.00;;;;;;;;5080579;28;11566;-78
2021/03/25 03:15:45;;;;;;;;;52.75;44.75;;;;;;;;5082746;28;11636;-77
2021/03/25 03:18:16;;;;;;;;;49.75;43.50;;;;;;;;5084905;28;11670;-77
2021/03/25 03:20:49;;;;;;;;;48.25;40.75;;;;;;;;5084981;28;11597;-77
2021/03/25 03:23:16;;;;;;;;;61.75;46.75;;;;;;;;5087229;28;12236;-78
2021/03/25 03:25:43;;;;;;;;;49.00;44.00;;;;;;;;5082913;28;11593;-79
2021/03/25 03:28:15;;;;;;;;;59.25;49.75;;;;;;;;5072644;28;11774;-78
2021/03/25 03:30:46;;;;;;;;;59.25;47.25;;;;;;;;5081783;28;11587;-78
2021/03/25 03:33:18;;;;;;;;;59.50;50.25;;;;;;;;5081496;28;11704;-77
2021/03/25 03:35:50;;;;;;;;;65.50;53.00;;;;;;;;5083502;28;11589;-78
2021/03/25 03:38:22;;;;;;;;;69.25;54.50;;;;;;;;5085137;28;11619;-77
2021/03/25 03:40:52;;;;;;;;;67.00;55.25;;;;;;;;5087820;28;11708;-78
2021/03/25 03:43:20;;;;;;;;;63.50;52.00;;;;;;;;5082547;28;11590;-78
2021/03/25 03:45:52;;;;;;;;;68.75;53.75;;;;;;;;5084135;28;11676;-78
2021/03/25 03:48:26;;;;;;;;;62.25;50.50;;;;;;;;5083479;28;11719;-78
2021/03/25 03:50:55;;;;;;;;;65.25;54.25;;;;;;;;5083119;28;11578;-79
2021/03/25 03:53:25;;;;;;;;;61.25;51.50;;;;;;;;5082281;28;12351;-79
2021/03/25 03:55:56;;;;;;;;;68.50;52.25;;;;;;;;5084805;28;11578;-78
2021/03/25 03:58:27;;;;;;;;;63.75;52.00;;;;;;;;5084974;28;12420;-78
2021/03/25 04:00:58;;;;;;;;;69.50;56.50;;;;;;;;5081209;28;11738;-78
2021/03/25 04:03:31;;;;;;;;;47.50;41.75;;;;;;;;5082403;28;11632;-78
2021/03/25 04:06:01;;;;;;;;;56.75;43.50;;;;;;;;5083365;28;11593;-78
2021/03/25 04:08:32;;;;;;;;;57.25;48.75;;;;;;;;5083465;28;11705;-77
2021/03/25 04:11:05;;;;;;;;;68.00;56.25;;;;;;;;5085450;28;11584;-79
2021/03/25 04:13:36;;;;;;;;;65.25;51.50;;;;;;;;5083265;28;11735;-77
2021/03/25 04:16:03;;;;;;;;;65.75;51.75;;;;;;;;5083482;28;11596;-80
2021/03/25 04:18:36;;;;;;;;;76.25;56.75;;;;;;;;5082375;28;12219;-78
2021/03/25 04:21:07;;;;;;;;;61.50;52.00;;;;;;;;5085151;28;11589;-77
2021/03/25 04:23:36;;;;;;;;;58.50;49.50;;;;;;;;5088773;28;12426;-79
2021/03/25 04:26:12;;;;;;;;;66.00;54.00;;;;;;;;5082344;28;11570;-76
2021/03/25 04:28:44;;;;;;;;;64.25;50.75;;;;;;;;5082174;28;11579;-78
2021/03/25 04:31:11;;;;;;;;;65.75;52.50;;;;;;;;5080808;28;11700;-79
2021/03/25 04:33:40;;;;;;;;;66.25;51.00;;;;;;;;5083680;28;11781;-77
2021/03/25 04:36:13;;;;;;;;;62.50;46.50;;;;;;;;5082178;28;11707;-79
2021/03/25 04:38:41;;;;;;;;;72.00;55.00;;;;;;;;5082124;28;11572;-79
2021/03/25 04:41:10;;;;;;;;;59.00;49.25;;;;;;;;5088596;28;11572;-79
2021/03/25 04:43:37;;;;;;;;;65.00;52.25;;;;;;;;5079194;28;11707;-79
2021/03/25 04:46:17;;;;;;;;;61.25;51.00;;;;;;;;5083033;28;11647;-78
2021/03/25 04:48:46;;;;;;;;;65.75;52.00;;;;;;;;5080794;28;11738;-78
2021/03/25 04:51:16;;;;;;;;;63.50;52.25;;;;;;;;5082574;28;11641;-78
2021/03/25 04:53:43;;;;;;;;;64.50;53.00;;;;;;;;5086734;28;11579;-78
2021/03/25 04:56:16;;;;;;;;;65.25;50.75;;;;;;;;5081584;28;11679;-79
2021/03/25 04:58:47;;;;;;;;;74.25;56.25;;;;;;;;5084590;28;11580;-79
2021/03/25 05:01:16;;;;;;;;;61.50;51.25;;;;;;;;5080552;28;12365;-78
2021/03/25 05:03:44;;;;;;;;;63.25;49.50;;;;;;;;5082648;28;11579;-79
2021/03/25 05:06:19;;;;;;;;;64.00;52.25;;;;;;;;5080104;28;12347;-78
2021/03/25 05:08:47;;;;;;;;;59.25;50.25;;;;;;;;5083310;28;11689;-79
2021/03/25 05:11:17;;;;;;;;;60.75;49.25;;;;;;;;5081745;28;12610;-80
2021/03/25 05:13:45;;;;;;;;;62.50;49.75;;;;;;;;5082723;28;12423;-80
2021/03/25 05:16:32;;;;;;;;;58.75;48.00;;;;;;;;5084870;28;11594;-82
2021/03/25 05:19:08;;;;;;;;;62.75;50.75;;;;;;;;5082346;28;11792;-79
2021/03/25 05:21:44;;;;;;;;;62.25;48.25;;;;;;;;5077836;28;11563;-79
2021/03/25 05:24:19;;;;;;;;;56.00;45.75;;;;;;;;5081827;28;11694;-79
2021/03/25 05:26:50;;;;;;;;;60.50;49.00;;;;;;;;5083877;28;11050;-79
2021/03/25 05:29:18;;;;;;;;;62.75;50.75;;;;;;;;5094186;28;11564;-79
2021/03/25 05:31:46;;;;;;;;;68.25;54.25;;;;;;;;5069124;28;11611;-78
2021/03/25 05:34:15;;;;;;;;;61.25;50.75;;;;;;;;5083171;28;11572;-78
2021/03/25 05:36:42;;;;;;;;;60.25;51.25;;;;;;;;5080952;28;11714;-78
2021/03/25 05:39:09;;;;;;;;;68.00;52.75;;;;;;;;5082314;28;11605;-78
2021/03/25 05:41:40;;;;;;;;;61.00;51.50;;;;;;;;5083552;28;11729;-77
2021/03/25 05:44:33;;;;;;;;;63.50;50.00;;;;;;;;5082609;28;11747;-79
2021/03/25 05:47:10;;;;;;;;;58.50;45.00;;;;;;;;5091774;28;11568;-81
2021/03/25 05:49:44;;;;;;;;;65.00;53.50;;;;;;;;5083443;28;11619;-80
2021/03/25 05:52:26;;;;;;;;;68.75;53.75;;;;;;;;5074797;28;11581;-78
2021/03/25 05:55:08;;;;;;;;;64.25;49.75;;;;;;;;5081291;28;11631;-78
2021/03/25 05:57:45;;;;;;;;;45.50;41.00;;;;;;;;5085620;28;11590;-78
2021/03/25 06:00:24;;;;;;;;;67.75;54.50;;;;;;;;5086611;28;11553;-79
2021/03/25 06:02:55;;;;;;;;;70.50;54.25;;;;;;;;5086007;28;11612;-78
2021/03/25 06:05:23;;;;;;;;;71.00;54.25;;;;;;;;5092415;28;11709;-77
2021/03/25 06:08:16;;;;;;;;;58.00;48.00;;;;;;;;5086448;28;11590;-76
2021/03/25 06:10:54;;;;;;;;;63.75;52.75;;;;;;;;5092834;28;11602;-78
2021/03/25 06:13:40;;;;;;;;;59.75;50.75;;;;;;;;5086762;28;11601;-80
2021/03/25 06:16:41;;;;;;;;;57.25;46.25;;;;;;;;5071955;28;11575;-80
2021/03/25 06:19:40;;;;;;;;;65.00;51.75;;;;;;;;5094728;28;11566;-77
2021/03/25 06:22:15;;;;;;;;;59.00;49.75;;;;;;;;5064293;28;12333;-78
2021/03/25 06:25:21;;;;;;;;;72.00;56.25;;;;;;;;5085264;28;11561;-76
2021/03/25 06:28:05;;;;;;;;;65.75;52.00;;;;;;;;5081159;28;11604;-73
2021/03/25 06:30:35;;;;;;;;;56.75;49.00;;;;;;;;5089745;28;11584;-74
2021/03/25 06:33:05;;;;;;;;;59.75;49.00;;;;;;;;5081609;28;11595;-74
2021/03/25 06:35:37;;;;;;;;;61.50;47.25;;;;;;;;5090318;28;11558;-74
2021/03/25 06:38:15;;;;;;;;;59.75;48.00;;;;;;;;5080868;28;11656;-73
2021/03/25 06:40:45;;;;;;;;;62.75;49.50;;;;;;;;5083696;28;11580;-72
2021/03/25 06:43:20;;;;;;;;;67.00;50.75;;;;;;;;5084238;28;11593;-71
2021/03/25 06:45:50;;;;;;;;;67.25;53.25;;;;;;;;5083867;28;11592;-72
2021/03/25 06:48:23;;;;;;;;;69.75;56.25;;;;;;;;5084327;28;12271;-73
2021/03/25 06:50:51;;;;;;;;;65.00;51.75;;;;;;;;5082091;28;11630;-73
2021/03/25 06:53:23;;;;;;;;;66.75;52.00;;;;;;;;5084575;28;11563;-72
2021/03/25 06:55:51;;;;;;;;;70.75;56.50;;;;;;;;5085171;28;12400;-71
2021/03/25 06:58:26;;;;;;;;;66.75;53.75;;;;;;;;5085382;28;11666;-72
2021/03/25 07:00:57;;;;;;;;;63.50;51.25;;;;;;;;5095995;27;11529;-72
2021/03/25 07:03:24;;;;;;;;;71.50;56.25;;;;;;;;5084425;28;11612;-71
2021/03/25 07:05:52;;;;;;;;;59.25;51.00;;;;;;;;5085345;28;11618;-71
2021/03/25 07:08:22;;;;;;;;;68.75;55.25;;;;;;;;5083647;28;11582;-70
2021/03/25 07:10:52;;;;;;;;;64.75;54.25;;;;;;;;5091186;28;12470;-69
2021/03/25 07:13:21;;;;;;;;;68.50;54.75;;;;;;;;5090111;28;11566;-72
2021/03/25 07:15:47;;;;;;;;;62.25;50.25;;;;;;;;5082399;28;12456;-72
2021/03/25 07:18:32;;;;;;;;;69.25;54.75;;;;;;;;5085293;28;11579;-70
2021/03/25 07:21:31;;;;;;;;;76.00;57.50;;;;;;;;5084099;28;11582;-72
2021/03/25 07:24:02;;;;;;;;;62.00;51.25;;;;;;;;5081769;28;11715;-73
2021/03/25 07:26:35;;;;;;;;;66.75;54.50;;;;;;;;5086146;28;11554;-72
2021/03/25 07:29:33;;;;;;;;;66.00;53.50;;;;;;;;5084389;28;11576;-71
2021/03/25 07:32:28;;;;;;;;;76.75;58.00;;;;;;;;5009551;28;11724;-69
2021/03/25 07:34:59;;;;;;;;;73.25;57.75;;;;;;;;5081006;28;11594;-70
2021/03/25 07:37:38;;;;;;;;;70.50;55.00;;;;;;;;5086322;28;12374;-71
2021/03/25 07:40:16;;;;;;;;;64.00;51.00;;;;;;;;5087813;28;11549;-71
2021/03/25 07:42:43;;;;;;;;;65.50;52.50;;;;;;;;5084835;28;11597;-72
2021/03/25 07:45:23;;;;;;;;;64.75;51.00;;;;;;;;5084668;28;11596;-72
2021/03/25 07:47:50;;;;;;;;;67.00;53.75;;;;;;;;5088249;28;11686;-71
2021/03/25 07:50:36;;;;;;;;;67.25;51.25;;;;;;;;5086272;28;11637;-70
2021/03/25 07:53:19;;;;;;;;;63.75;49.50;;;;;;;;5081716;28;11598;-70
2021/03/25 07:55:47;;;;;;;;;69.75;54.50;;;;;;;;5081719;28;11603;-71
2021/03/25 07:58:33;;;;;;;;;64.50;53.50;;;;;;;;5085678;28;11100;-71
2021/03/25 08:01:10;;;;;;;;;67.50;56.25;;;;;;;;5083826;28;11610;-71
2021/03/25 08:03:45;;;;;;;;;64.75;53.75;;;;;;;;5086881;28;11594;-71
2021/03/25 08:06:22;;;;;;;;;62.50;50.00;;;;;;;;5084565;28;11592;-71
2021/03/25 08:09:01;;;;;;;;;68.00;56.50;;;;;;;;5083299;28;11697;-71
2021/03/25 08:11:29;;;;;;;;;64.00;52.75;;;;;;;;5086572;28;11563;-71
2021/03/25 08:13:59;;;;;;;;;63.25;50.25;;;;;;;;5083720;28;11729;-71
2021/03/25 08:16:27;;;;;;;;;66.50;54.75;;;;;;;;5083521;28;11591;-71
2021/03/25 08:19:06;;;;;;;;;67.75;54.25;;;;;;;;5088673;28;11576;-71
2021/03/25 08:21:45;;;;;;;;;63.00;48.25;;;;;;;;5082586;28;11688;-71
2021/03/25 08:24:46;;;;;;;;;63.50;51.00;;;;;;;;5085195;28;11594;-71
2021/03/25 08:27:30;;;;;;;;;81.00;61.25;;;;;;;;5088409;27;11587;-70
2021/03/25 08:30:09;;;;;;;;;68.00;54.25;;;;;;;;5079499;28;12566;-70
2021/03/25 08:32:52;;;;;;;;;62.50;49.50;;;;;;;;5081170;28;11563;-71
2021/03/25 08:35:24;;;;;;;;;60.75;51.75;;;;;;;;5084126;28;11607;-71
2021/03/25 08:38:20;;;;;;;;;62.75;51.25;;;;;;;;5082218;28;11574;-71
2021/03/25 08:40:51;;;;;;;;;61.50;48.00;;;;;;;;5086820;28;11710;-71
2021/03/25 08:43:24;;;;;;;;;61.25;50.25;;;;;;;;5082905;28;11614;-71
2021/03/25 08:45:55;;;;;;;;;63.50;50.75;;;;;;;;5085960;28;11697;-71
2021/03/25 08:48:26;;;;;;;;;60.25;51.25;;;;;;;;5090552;28;11690;-70
2021/03/25 08:51:01;;;;;;;;;56.75;47.25;;;;;;;;5088696;28;11592;-70
2021/03/25 08:53:36;;;;;;;;;55.50;47.25;;;;;;;;5088245;28;11639;-71
2021/03/25 08:56:09;;;;;;;;;55.00;46.25;;;;;;;;5078739;28;11587;-71
2021/03/25 08:58:40;;;;;;;;;58.75;47.25;;;;;;;;5079984;28;11597;-71
2021/03/25 09:01:11;;;;;;;;;59.00;50.25;;;;;;;;5073187;27;11535;-71
2021/03/25 09:03:42;;;;;;;;;59.25;46.25;;;;;;;;5086495;28;11514;-70
2021/03/25 09:06:14;;;;;;;;;57.25;42.50;;;;;;;;5099296;28;11923;-70
2021/03/25 09:08:42;;;;;;;;;58.25;47.75;;;;;;;;5079649;28;11524;-70
2021/03/25 09:11:13;;;;;;;;;53.75;44.75;;;;;;;;5083818;28;12347;-69
2021/03/25 09:13:43;;;;;;;;;59.25;48.75;;;;;;;;5082402;28;11631;-69
2021/03/25 09:16:14;;;;;;;;;52.75;42.75;;;;;;;;5082937;28;12370;-71
2021/03/25 09:18:44;;;;;;;;;53.00;44.50;;;;;;;;5082714;28;11498;-69
2021/03/25 09:21:14;;;;;;;;;56.50;47.00;;;;;;;;5083120;28;11536;-69
2021/03/25 09:23:59;;;;;;;;;42.00;38.00;;;;;;;;5082848;28;11528;-70
2021/03/25 09:27:01;;;;;;;;;47.50;41.25;;;;;;;;5081628;28;11528;-70
2021/03/25 09:29:35;;;;;;;;;47.00;41.50;;;;;;;;5021361;28;11725;-70
2021/03/25 09:32:35;;;;;;;;;56.75;47.75;;;;;;;;5006225;28;11493;-70
2021/03/25 09:35:39;;;;;;;;;39.50;32.50;;;;;;;;5061966;28;11508;-69
2021/03/25 09:38:10;;;;;;;;;50.50;41.75;;;;;;;;5079111;28;11601;-70
2021/03/25 09:40:46;;;;;;;;;51.75;43.00;;;;;;;;5089276;28;11498;-70
2021/03/25 09:43:32;;;;;;;;;60.00;47.25;;;;;;;;5083508;28;11641;-70
2021/03/25 09:46:26;;;;;;;;;60.75;46.75;;;;;;;;5084910;28;11521;-69
2021/03/25 09:48:54;;;;;;;;;56.50;46.00;;;;;;;;5084218;28;11529;-70
2021/03/25 09:51:22;;;;;;;;;53.75;46.25;;;;;;;;5086991;28;12267;-70
2021/03/25 09:53:50;;;;;;;;;48.50;43.25;;;;;;;;5086757;28;11601;-70
2021/03/25 09:56:35;;;;;;;;;48.00;39.75;;;;;;;;5084971;28;11485;-70
2021/03/25 09:59:03;;;;;;;;;52.00;43.25;;;;;;;;5087499;28;11528;-70
2021/03/25 10:01:52;;;;;;;;;58.25;47.50;;;;;;;;5085186;28;11469;-72
2021/03/25 10:04:39;;;;;;;;;42.50;39.00;;;;;;;;5087347;28;12296;-70
2021/03/25 10:07:36;;;;;;;;;50.00;43.00;;;;;;;;5086641;28;11573;-71
2021/03/25 10:10:32;;;;;;;;;44.00;39.00;;;;;;;;5085185;28;11531;-70
2021/03/25 10:13:21;;;;;;;;;57.50;39.50;;;;;;;;5073871;28;11326;-73
2021/03/25 10:15:57;;;;;;;;;51.75;41.50;;;;;;;;5077380;28;11519;-71
2021/03/25 10:18:54;;;;;;;;;51.75;43.25;;;;;;;;5084494;28;11518;-73
2021/03/25 10:22:03;;;;;;;;;41.00;37.00;;;;;;;;5078904;28;11591;-71
2021/03/25 10:24:33;;;;;;;;;48.25;42.00;;;;;;;;5085225;28;11482;-69
2021/03/25 10:27:17;;;;;;;;;53.00;43.50;;;;;;;;5085255;28;11499;-70
2021/03/25 10:29:44;;;;;;;;;55.50;45.50;;;;;;;;5080268;28;11530;-71
2021/03/25 10:32:20;;;;;;;;;45.25;40.50;;;;;;;;5085073;28;11535;-71
2021/03/25 10:34:49;;;;;;;;;53.00;42.75;;;;;;;;5086659;28;11414;-70
2021/03/25 10:37:28;;;;;;;;;46.50;40.25;;;;;;;;5085697;28;11288;-72
2021/03/25 10:40:02;;;;;;;;;40.00;38.00;;;;;;;;5087005;28;11485;-71
2021/03/25 10:42:33;;;;;;;;;49.50;42.50;;;;;;;;5090977;28;11284;-70
2021/03/25 10:45:19;;;;;;;;;42.25;37.50;;;;;;;;5082662;28;11875;-70
2021/03/25 10:47:54;;;;;;;;;47.50;38.75;;;;;;;;5084322;28;11355;-70
2021/03/25 10:50:25;;;;;;;;;44.00;38.75;;;;;;;;5085055;28;11097;-70
2021/03/25 10:52:52;;;;;;;;;41.25;36.25;;;;;;;;5085381;28;11236;-70
2021/03/25 10:55:23;;;;;;;;;45.00;37.25;;;;;;;;5085891;28;11145;-71
2021/03/25 10:57:52;;;;;;;;;50.00;40.25;;;;;;;;5083569;28;11162;-71
2021/03/25 11:00:23;;;;;;;;;40.25;38.00;;;;;;;;5087355;27;11140;-72
2021/03/25 11:02:50;;;;;;;;;38.50;35.50;;;;;;;;5085402;28;10896;-71
2021/03/25 11:05:19;;;;;;;;;44.25;38.75;;;;;;;;5089771;28;10846;-72
2021/03/25 11:07:50;;;;;;;;;33.25;32.75;;;;;;;;5085604;28;11261;-71
2021/03/25 11:10:21;;;;;;;;;39.75;36.50;;;;;;;;5084750;28;10823;-71
2021/03/25 11:12:55;;;;;;;;;35.75;32.00;;;;;;;;5086093;28;10877;-71
2021/03/25 11:15:27;;;;;;;;;46.00;37.75;;;;;;;;5083781;28;10835;-71
2021/03/25 11:17:54;;;;;;;;;44.25;38.00;;;;;;;;5085729;28;10853;-72
2021/03/25 11:20:25;;;;;;;;;41.25;36.25;;;;;;;;5085269;28;11133;-71
2021/03/25 11:22:56;;;;;;;;;38.25;35.25;;;;;;;;5096091;27;10673;-71
2021/03/25 11:25:28;;;;;;;;;36.25;34.75;;;;;;;;5084996;28;10982;-72
2021/03/25 11:28:03;;;;;;;;;46.25;39.75;;;;;;;;5084236;28;10686;-70
2021/03/25 11:30:35;;;;;;;;;43.25;36.50;;;;;;;;5085120;27;10749;-71
2021/03/25 11:33:16;;;;;;;;;35.75;33.50;;;;;;;;5084711;28;10838;-70
2021/03/25 11:35:44;;;;;;;;;33.50;29.75;;;;;;;;5084621;28;10508;-70
2021/03/25 11:38:30;;;;;;;;;54.00;39.75;;;;;;;;5085151;28;12176;-70
2021/03/25 11:40:59;;;;;;;;;38.25;35.50;;;;;;;;5094685;28;10944;-70
2021/03/25 11:43:40;;;;;;;;;37.00;35.75;;;;;;;;5086541;28;10850;-70
2021/03/25 11:46:07;;;;;;;;;41.25;37.75;;;;;;;;5083776;28;10670;-70
2021/03/25 11:48:36;;;;;;;;;41.00;37.00;;;;;;;;5084675;28;11438;-71
2021/03/25 11:51:22;;;;;;;;;33.50;29.75;;;;;;;;5082367;28;10560;-72
2021/03/25 11:53:51;;;;;;;;;43.25;36.00;;;;;;;;5079187;28;10671;-72
2021/03/25 11:56:29;;;;;;;;;48.00;38.00;;;;;;;;5083968;28;10488;-74
2021/03/25 11:59:03;;;;;;;;;42.25;37.25;;;;;;;;5083350;28;10422;-72
2021/03/25 12:01:31;;;;;;;;;39.25;35.00;;;;;;;;5084440;28;11368;-73
2021/03/25 12:04:01;;;;;;;;;42.00;38.00;;;;;;;;5082973;28;10653;-70
2021/03/25 12:06:30;;;;;;;;;37.50;35.50;;;;;;;;5083357;28;10811;-70
2021/03/25 12:09:14;;;;;;;;;36.00;34.00;;;;;;;;5083097;28;10792;-71
2021/03/25 12:11:44;;;;;;;;;41.50;37.75;;;;;;;;5082145;28;10751;-71
2021/03/25 12:14:12;;;;;;;;;45.00;38.00;;;;;;;;5082546;28;10826;-71
2021/03/25 12:16:39;;;;;;;;;34.00;34.00;;;;;;;;5083200;28;11016;-73
2021/03/25 12:19:07;;;;;;;;;36.75;35.25;;;;;;;;5083553;28;10728;-72
2021/03/25 12:21:35;;;;;;;;;38.50;34.00;;;;;;;;5084145;28;11062;-72
2021/03/25 12:24:03;;;;;;;;;29.50;26.75;;;;;;;;5082307;28;10776;-73
2021/03/25 12:26:31;;;;;;;;;31.50;28.00;;;;;;;;5084388;28;11377;-72
2021/03/25 12:29:03;;;;;;;;;38.75;31.75;;;;;;;;5081320;28;10630;-72
2021/03/25 12:31:32;;;;;;;;;34.00;31.75;;;;;;;;5081642;28;10472;-72
2021/03/25 12:33:59;;;;;;;;;34.00;33.50;;;;;;;;5080408;28;10679;-72
2021/03/25 12:36:27;;;;;;;;;31.75;31.75;;;;;;;;5080408;28;10417;-73
2021/03/25 12:38:55;;;;;;;;;29.00;26.50;;;;;;;;5068331;28;10510;-72
2021/03/25 12:41:28;;;;;;;;;33.00;28.00;;;;;;;;5068366;28;10468;-72
2021/03/25 12:43:56;;;;;;;;;32.25;29.75;;;;;;;;5067349;28;10491;-72
2021/03/25 12:46:23;;;;;;;;;29.50;28.75;;;;;;;;5066635;28;10407;-72
2021/03/25 12:48:50;;;;;;;;;26.50;24.75;;;;;;;;5067576;28;12111;-71
2021/03/25 12:51:17;;;;;;;;;36.00;30.75;;;;;;;;5069010;28;10291;-73
2021/03/25 12:53:45;;;;;;;;;27.50;27.50;;;;;;;;5068536;28;10267;-72
2021/03/25 12:56:15;;;;;;;;;33.25;32.50;;;;;;;;5068978;28;10335;-72
2021/03/25 12:58:42;;;;;;;;;31.50;28.25;;;;;;;;5072487;28;10442;-72
2021/03/25 13:01:12;;;;;;;;;28.25;28.25;;;;;;;;5065187;28;10314;-75
2021/03/25 13:03:41;;;;;;;;;29.75;29.75;;;;;;;;5078395;28;10541;-73
2021/03/25 13:06:10;;;;;;;;;39.50;33.75;;;;;;;;5082758;28;10417;-72
2021/03/25 13:08:37;;;;;;;;;34.00;32.00;;;;;;;;5082272;28;10365;-72
2021/03/25 13:11:05;;;;;;;;;28.50;27.25;;;;;;;;5083085;28;10360;-70
2021/03/25 13:13:32;;;;;;;;;33.75;31.50;;;;;;;;5083509;28;10403;-73
2021/03/25 13:15:59;;;;;;;;;30.75;28.00;;;;;;;;5081741;28;10458;-69
2021/03/25 13:18:27;;;;;;;;;29.25;28.00;;;;;;;;5082655;28;10469;-70
2021/03/25 13:20:55;;;;;;;;;30.50;27.75;;;;;;;;5082044;28;10353;-70
2021/03/25 13:23:24;;;;;;;;;32.50;30.00;;;;;;;;5087305;28;10421;-72
2021/03/25 13:25:52;;;;;;;;;28.50;28.50;;;;;;;;5081910;28;10427;-72
2021/03/25 13:28:21;;;;;;;;;35.00;29.25;;;;;;;;5083275;28;10407;-72
2021/03/25 13:30:49;;;;;;;;;34.75;30.75;;;;;;;;5082450;27;10486;-71
2021/03/25 13:33:17;;;;;;;;;27.25;25.50;;;;;;;;5078620;28;10241;-72
2021/03/25 13:35:47;;;;;;;;;28.75;27.00;;;;;;;;5079506;28;11428;-71
2021/03/25 13:38:14;;;;;;;;;27.25;20.75;;;;;;;;5080816;28;10129;-72
2021/03/25 13:40:43;;;;;;;;;29.50;27.75;;;;;;;;5085270;28;9935;-71
2021/03/25 13:43:16;;;;;;;;;19.67;19.67;;;;;;;;5076951;28;10441;-72
2021/03/25 13:45:43;;;;;;;;;24.33;21.67;;;;;;;;5082074;28;9399;-71
2021/03/25 13:48:13;;;;;;;;;10.75;10.50;;;;;;;;5082159;28;9324;-73
2021/03/25 13:50:42;;;;;;;;;10.50;10.00;;;;;;;;5082387;28;8856;-71
2021/03/25 13:53:10;;;;;;;;;15.00;15.00;;;;;;;;5085518;28;8851;-71
2021/03/25 13:55:39;;;;;;;;;17.50;16.25;;;;;;;;5081510;28;8876;-72
2021/03/25 13:58:08;;;;;;;;;19.00;19.00;;;;;;;;5083189;28;8957;-72
2021/03/25 14:00:36;;;;;;;;;14.75;13.75;;;;;;;;5078998;27;9639;-73
2021/03/25 14:03:04;;;;;;;;;18.00;16.00;;;;;;;;5083452;28;9613;-72
2021/03/25 14:05:35;;;;;;;;;22.50;18.75;;;;;;;;5081713;28;9617;-72
2021/03/25 14:08:03;;;;;;;;;14.75;13.50;;;;;;;;5083368;28;8868;-71
2021/03/25 14:10:34;;;;;;;;;21.00;17.75;;;;;;;;5082233;28;9002;-72
2021/03/25 14:13:03;;;;;;;;;17.50;15.50;;;;;;;;5078325;28;8894;-72
2021/03/25 14:15:32;;;;;;;;;18.50;16.75;;;;;;;;5072173;28;8846;-71
2021/03/25 14:18:00;;;;;;;;;21.00;17.50;;;;;;;;5067474;28;8956;-72
2021/03/25 14:20:28;;;;;;;;;15.50;13.75;;;;;;;;5067602;28;8884;-73
2021/03/25 14:22:55;;;;;;;;;21.75;19.75;;;;;;;;5073318;28;9650;-73
2021/03/25 14:25:26;;;;;;;;;21.75;17.75;;;;;;;;5074267;28;8882;-73
2021/03/25 14:27:55;;;;;;;;;21.75;19.75;;;;;;;;5077282;28;8957;-73
2021/03/25 14:30:23;;;;;;;;;16.50;16.50;;;;;;;;5065967;28;8850;-71
2021/03/25 14:32:51;;;;;;;;;18.25;16.75;;;;;;;;5070088;28;8859;-71
2021/03/25 14:35:20;;;;;;;;;17.00;15.50;;;;;;;;5062141;28;8921;-72
2021/03/25 14:37:48;;;;;;;;;15.50;15.00;;;;;;;;5075130;28;8877;-71
2021/03/25 14:40:17;;;;;;;;;13.25;13.25;;;;;;;;5075628;28;8871;-71
2021/03/25 14:42:48;;;;;;;;;19.50;16.50;;;;;;;;5078155;28;8864;-72
2021/03/25 14:45:19;;;;;;;;;12.25;12.25;;;;;;;;5072265;28;9123;-70
2021/03/25 14:47:46;;;;;;;;;16.00;13.75;;;;;;;;5069424;28;9532;-71
2021/03/25 14:50:14;;;;;;;;;14.25;13.25;;;;;;;;5070211;28;8856;-71
2021/03/25 14:52:41;;;;;;;;;15.25;14.00;;;;;;;;5073973;28;8860;-72